LIBD/BRI METAR and TAF weather

Enter ICAO airport designator
Station Type Date Time Source
LIBD METAR 2022/12/08 13:50 UTC NOAA

LIBD 081350Z 31003KT 250V350 CAVOK 18/10 Q1011


Station Type Date Time Source
LIBD Decoded METAR 2022/12/08 13:50 UTC NOAA

Bari / Palese Macchie, Italy (LIBD) 41-08N 016-47E 49M
Dec 08, 2022 - 08:50 AM EST / 2022.12.08 1350 UTC
Wind: from the NW (310 degrees) at 3 MPH (3 KT) (direction variable):0
Visibility: greater than 7 mile(s):0
Temperature: 64 F (18 C)
Dew Point: 50 F (10 C)
Relative Humidity: 59%
Pressure (altimeter): 29.85 in. Hg (1011 hPa)
ob: LIBD 081350Z 31003KT 250V350 CAVOK 18/10 Q1011
cycle: 14

Station Type Date Time Source
LIBD TAF 2022/12/08 12:21 UTC NOAA

TAF LIBD 081100Z 0812/0912 20007KT 9999 FEW030

Example: see airport list